Time;durP1;ratioP1;P1;durP2;ratioP2;P2;SDS_P1;SDS_P2;PMS_P1;PMS_P2;Temp;Humidity;BMP_temperature;BMP_pressure;BME280_temperature;BME280_humidity;BME280_pressure;Samples;Min_cycle;Max_cycle;Signal;HPM_P1;HPM_P2
2023/05/27 00:02:08;;;;;;;7.07;5.38;;;14.90;95.70;;;15.76;55.25;98617.13;5196340;28;20714;-69
2023/05/27 00:04:41;;;;;;;9.05;5.40;;;14.90;95.70;;;15.61;55.56;98613.75;5196036;28;20289;-68
2023/05/27 00:07:16;;;;;;;9.02;5.22;;;14.80;95.90;;;15.68;55.41;98614.97;5195130;28;20218;-68
2023/05/27 00:09:49;;;;;;;9.60;5.68;;;14.80;96.00;;;15.70;55.17;98608.22;5198058;28;20276;-69
2023/05/27 00:12:22;;;;;;;9.02;4.90;;;14.80;95.50;;;15.60;55.47;98609.44;5195575;28;20698;-68
2023/05/27 00:14:55;;;;;;;10.27;5.75;;;14.70;95.80;;;15.58;55.63;98600.72;5199817;28;20786;-69
2023/05/27 00:17:28;;;;;;;8.10;4.90;;;14.80;95.70;;;15.41;55.64;98610.19;5202220;28;20253;-68
2023/05/27 00:20:07;;;;;;;9.57;5.43;;;14.70;95.60;;;15.23;55.95;98607.59;5199113;28;20656;-69
2023/05/27 00:22:41;;;;;;;11.45;5.47;;;14.60;95.80;;;15.27;56.39;98612.06;5199987;28;20305;-69
2023/05/27 00:25:14;;;;;;;6.80;4.45;;;14.60;96.10;;;15.40;55.98;98617.88;5202349;28;20230;-68
2023/05/27 00:27:48;;;;;;;10.35;5.15;;;14.60;95.90;;;15.32;56.24;98609.75;5199675;28;20260;-69
2023/05/27 00:30:21;;;;;;;10.68;5.00;;;14.60;96.10;;;15.21;56.67;98606.63;5193613;28;20225;-69
2023/05/27 00:32:54;;;;;;;9.43;5.20;;;14.50;96.10;;;15.16;56.92;98605.47;5198845;28;20222;-69
2023/05/27 00:35:27;;;;;;;10.20;5.50;;;14.40;96.60;;;15.22;57.03;98608.41;5201732;28;20284;-68
2023/05/27 00:38:02;;;;;;;10.32;5.05;;;14.50;96.50;;;15.22;57.08;98608.41;5207157;28;20307;-69
2023/05/27 00:40:36;;;;;;;9.18;5.13;;;14.50;96.90;;;15.31;57.61;98608.84;5192965;28;20244;-68
2023/05/27 00:43:09;;;;;;;6.55;4.82;;;14.40;96.90;;;15.20;58.06;98610.00;5197666;28;20616;-69
2023/05/27 00:45:42;;;;;;;10.40;5.07;;;14.40;97.30;;;15.08;58.12;98606.81;5207601;28;20275;-68
2023/05/27 00:48:16;;;;;;;9.63;5.18;;;14.30;97.60;;;15.09;58.65;98606.88;5203140;28;20225;-69
2023/05/27 00:50:49;;;;;;;9.30;5.05;;;14.30;97.80;;;15.10;59.37;98597.44;5199479;28;20229;-68
2023/05/27 00:53:25;;;;;;;12.20;5.53;;;14.20;98.00;;;15.11;57.96;98594.09;5198264;28;20666;-68
2023/05/27 00:55:59;;;;;;;9.98;5.40;;;14.20;97.90;;;15.10;58.61;98598.34;5203654;28;20624;-68
2023/05/27 00:58:33;;;;;;;9.32;5.40;;;14.20;98.00;;;15.09;59.20;98596.56;5204728;28;20228;-68
2023/05/27 01:01:07;;;;;;;8.02;4.60;;;14.20;98.30;;;15.03;59.27;98597.97;5197848;28;20784;-69
2023/05/27 01:03:41;;;;;;;7.93;5.18;;;14.20;98.60;;;15.05;59.36;98597.25;5193334;28;20222;-69
2023/05/27 01:06:24;;;;;;;9.50;5.28;;;14.10;98.80;;;15.01;59.23;98589.25;5190829;28;20752;-69
2023/05/27 01:09:06;;;;;;;7.65;4.90;;;14.20;98.70;;;15.08;59.56;98597.41;5196829;28;20226;-69
2023/05/27 01:11:58;;;;;;;9.38;4.88;;;14.10;99.10;;;14.85;60.24;98593.63;5196967;28;20229;-67
2023/05/27 01:14:35;;;;;;;10.65;5.50;;;14.00;99.00;;;14.81;60.70;98591.69;5194428;28;20233;-68
2023/05/27 01:17:09;;;;;;;10.30;5.40;;;13.90;99.40;;;14.68;60.85;98594.44;5195352;28;20221;-68
2023/05/27 01:19:45;;;;;;;11.52;5.90;;;13.80;99.60;;;14.54;61.62;98587.69;5202747;28;20219;-68
2023/05/27 01:22:21;;;;;;;9.32;5.28;;;13.70;99.90;;;14.60;62.09;98590.56;5199219;28;20245;-68
2023/05/27 01:24:55;;;;;;;10.30;5.45;;;13.70;99.90;;;14.47;62.21;98582.97;5199448;28;20291;-68
2023/05/27 01:27:28;;;;;;;9.48;5.25;;;13.60;99.90;;;14.41;62.04;98584.41;5200527;28;20221;-68
2023/05/27 01:30:03;;;;;;;11.27;5.85;;;13.60;99.90;;;14.47;63.12;98580.38;5199334;28;20234;-68
2023/05/27 01:32:42;;;;;;;12.88;5.72;;;13.60;99.90;;;14.36;62.83;98575.53;5203978;28;20243;-68
2023/05/27 01:35:24;;;;;;;10.05;5.53;;;13.50;99.90;;;14.45;62.67;98576.84;5210368;28;20660;-68
2023/05/27 01:38:00;;;;;;;8.90;4.70;;;13.60;99.90;;;14.40;63.42;98574.94;5199563;28;20230;-68
2023/05/27 01:40:36;;;;;;;10.32;5.80;;;13.60;99.90;;;14.36;63.56;98572.97;5194896;28;20217;-68
2023/05/27 01:43:10;;;;;;;8.75;5.00;;;13.50;99.90;;;14.30;63.99;98569.19;5205346;28;20221;-68
2023/05/27 01:45:44;;;;;;;10.50;5.60;;;13.50;99.90;;;14.39;62.49;98573.16;5200510;28;20366;-68
2023/05/27 01:48:19;;;;;;;8.57;5.07;;;13.50;99.90;;;14.38;63.12;98566.22;5198215;28;20306;-68
2023/05/27 01:50:52;;;;;;;10.05;5.30;;;13.50;99.90;;;14.15;63.85;98570.13;5204164;28;20713;-68
2023/05/27 01:53:25;;;;;;;10.82;5.68;;;13.40;99.90;;;14.19;64.31;98560.91;5206273;28;20338;-68
2023/05/27 01:56:00;;;;;;;10.88;5.43;;;13.40;99.90;;;14.18;64.30;98564.28;5213095;28;20731;-68
2023/05/27 01:58:33;;;;;;;11.32;5.20;;;13.40;99.90;;;14.16;64.28;98563.31;5201766;28;20229;-68
2023/05/27 02:01:06;;;;;;;9.20;5.68;;;13.30;99.90;;;14.16;64.27;98571.00;5198747;28;20652;-68
2023/05/27 02:03:40;;;;;;;11.35;5.47;;;13.30;99.90;;;14.08;64.26;98560.34;5202108;28;20232;-69
2023/05/27 02:06:13;;;;;;;8.85;5.18;;;13.20;99.90;;;14.18;64.73;98556.56;5202248;28;20234;-69
2023/05/27 02:08:46;;;;;;;10.35;5.10;;;13.30;99.90;;;14.28;64.24;98558.84;5203574;28;20222;-68
2023/05/27 02:11:21;;;;;;;10.65;5.63;;;13.40;99.90;;;14.17;64.79;98559.94;5199273;28;20218;-69
2023/05/27 02:13:55;;;;;;;11.52;5.30;;;13.30;99.90;;;13.98;65.00;98558.94;5199364;28;20217;-68
2023/05/27 02:16:30;;;;;;;8.98;4.78;;;13.20;99.90;;;13.98;65.13;98564.06;5197608;28;20233;-68
2023/05/27 02:19:04;;;;;;;9.55;4.82;;;13.20;99.90;;;14.08;64.93;98559.44;5201674;28;20229;-68
2023/05/27 02:21:37;;;;;;;11.43;6.00;;;13.20;99.90;;;14.01;64.97;98559.91;5201191;28;20224;-68
2023/05/27 02:24:10;;;;;;;11.82;5.53;;;13.20;99.90;;;13.95;64.73;98561.34;5195479;28;20856;-69
2023/05/27 02:26:45;;;;;;;9.88;5.38;;;13.20;99.90;;;13.98;65.45;98560.63;5205759;28;21121;-68
2023/05/27 02:29:18;;;;;;;13.52;5.72;;;13.20;99.90;;;13.96;64.81;98559.63;5202802;28;20252;-69
2023/05/27 02:31:51;;;;;;;13.98;5.88;;;13.20;99.90;;;13.86;65.09;98558.25;5196517;28;20325;-69
2023/05/27 02:34:24;;;;;;;11.90;5.80;;;13.20;99.90;;;14.00;64.68;98555.59;5193195;28;20229;-68
2023/05/27 02:36:57;;;;;;;15.05;6.20;;;13.30;99.90;;;14.04;64.93;98560.06;5203355;28;20228;-68
2023/05/27 02:39:30;;;;;;;10.23;5.35;;;13.30;99.90;;;14.26;64.04;98552.72;5199767;28;20238;-68
2023/05/27 02:42:06;;;;;;;10.63;5.72;;;13.40;99.90;;;14.31;63.86;98548.72;5198579;28;20226;-68
2023/05/27 02:44:39;;;;;;;13.23;5.80;;;13.50;99.90;;;14.31;64.88;98548.72;5202304;28;20628;-68
2023/05/27 02:47:12;;;;;;;13.50;5.97;;;13.50;99.90;;;14.28;64.40;98548.56;5196370;28;20233;-69
2023/05/27 02:49:45;;;;;;;10.68;5.25;;;13.40;99.90;;;14.20;65.13;98557.53;5199082;28;20222;-69
2023/05/27 02:52:19;;;;;;;9.48;6.10;;;13.40;99.90;;;14.15;65.24;98553.84;5200545;28;20662;-68
2023/05/27 02:54:52;;;;;;;10.35;5.65;;;13.40;99.90;;;14.14;66.23;98549.50;5194836;28;20257;-68
2023/05/27 02:57:27;;;;;;;10.68;5.78;;;13.30;99.90;;;14.31;65.41;98551.28;5193602;28;20226;-68
2023/05/27 03:00:00;;;;;;;10.98;5.72;;;13.30;99.90;;;14.26;64.51;98549.28;5206787;28;20293;-69
2023/05/27 03:02:33;;;;;;;10.70;5.50;;;13.40;99.90;;;14.07;64.84;98544.81;5211584;28;20670;-68
2023/05/27 03:05:07;;;;;;;8.70;5.68;;;13.30;99.90;;;14.01;65.77;98552.19;5196208;28;20316;-68
2023/05/27 03:07:41;;;;;;;12.35;5.78;;;13.20;99.90;;;13.87;66.25;98547.16;5193358;28;20653;-68
2023/05/27 03:10:14;;;;;;;11.85;5.57;;;13.10;99.90;;;13.89;65.69;98549.84;5199279;28;20253;-68
2023/05/27 03:12:48;;;;;;;12.27;5.68;;;13.00;99.90;;;13.90;66.04;98549.91;5204997;28;20304;-68
2023/05/27 03:15:22;;;;;;;8.98;5.50;;;13.00;99.90;;;14.06;65.33;98553.34;5199754;28;20271;-68
2023/05/27 03:17:55;;;;;;;16.67;6.53;;;13.10;99.90;;;13.94;66.01;98551.88;5195942;28;20574;-68
2023/05/27 03:20:28;;;;;;;11.40;5.82;;;13.10;99.90;;;13.77;66.67;98552.63;5198705;28;20804;-68
2023/05/27 03:23:02;;;;;;;11.07;5.70;;;13.00;99.90;;;13.68;67.14;98557.25;5196385;28;20223;-69
2023/05/27 03:25:35;;;;;;;11.75;5.40;;;12.90;99.90;;;13.69;66.63;98549.63;5199241;28;20228;-68
2023/05/27 03:28:10;;;;;;;10.30;6.10;;;12.90;99.90;;;13.81;66.66;98549.41;5197983;28;20303;-69
2023/05/27 03:30:43;;;;;;;12.30;6.05;;;12.90;99.90;;;13.67;66.71;98550.31;5194393;28;20225;-68
2023/05/27 03:33:16;;;;;;;9.70;5.45;;;12.90;99.90;;;13.69;67.19;98535.88;5207147;28;20724;-68
2023/05/27 03:35:49;;;;;;;11.85;6.15;;;12.90;99.90;;;13.67;67.36;98545.19;5203970;28;20250;-68
2023/05/27 03:38:23;;;;;;;11.52;5.63;;;12.80;99.90;;;13.78;67.64;98549.25;5199596;28;20241;-68
2023/05/27 03:40:56;;;;;;;10.23;5.55;;;12.90;99.90;;;13.78;66.59;98548.38;5200939;28;20247;-68
2023/05/27 03:43:30;;;;;;;10.25;5.50;;;12.90;99.90;;;13.79;66.48;98545.84;5205405;28;20230;-68
2023/05/27 03:46:03;;;;;;;9.80;5.40;;;12.90;99.90;;;13.77;67.04;98552.63;5200839;28;20677;-69
2023/05/27 03:48:37;;;;;;;11.48;5.72;;;12.90;99.90;;;13.76;67.14;98545.69;5206586;28;20288;-68
2023/05/27 03:51:10;;;;;;;11.63;5.82;;;12.90;99.90;;;13.74;68.43;98547.31;5201547;28;20722;-68
2023/05/27 03:53:43;;;;;;;9.48;5.63;;;12.90;99.90;;;13.72;68.73;98542.06;5197904;28;20256;-68
2023/05/27 03:56:16;;;;;;;8.82;5.20;;;12.90;99.90;;;13.72;68.88;98554.03;5194790;28;20342;-68
2023/05/27 03:58:51;;;;;;;10.95;5.53;;;12.90;99.90;;;13.72;70.09;98548.91;5208229;28;20221;-69
2023/05/27 04:01:24;;;;;;;10.32;5.47;;;12.80;99.90;;;13.68;70.93;98553.00;5195894;28;20283;-68
2023/05/27 04:03:57;;;;;;;13.65;5.93;;;12.80;99.90;;;13.60;70.05;98543.97;5198807;28;20727;-68
2023/05/27 04:06:31;;;;;;;10.93;6.05;;;12.70;99.90;;;13.55;71.60;98549.66;5196776;28;20735;-68
2023/05/27 04:09:04;;;;;;;10.50;5.13;;;12.60;99.90;;;13.52;71.64;98552.91;5196723;28;20217;-68
2023/05/27 04:11:37;;;;;;;10.63;5.55;;;12.60;99.90;;;13.55;70.73;98550.53;5197255;28;20240;-68
2023/05/27 04:14:12;;;;;;;8.75;5.43;;;12.60;99.90;;;13.58;71.54;98550.69;5197728;28;20222;-69
2023/05/27 04:16:45;;;;;;;13.98;6.40;;;12.60;99.90;;;13.49;69.63;98548.50;5188395;28;20237;-68
2023/05/27 04:19:19;;;;;;;10.73;5.75;;;12.60;99.90;;;13.57;68.82;98553.19;5200343;28;20245;-68
2023/05/27 04:21:52;;;;;;;11.45;5.40;;;12.60;99.90;;;13.66;69.09;98551.13;5198663;28;20232;-68
2023/05/27 04:24:25;;;;;;;10.52;5.25;;;12.70;99.90;;;13.55;69.60;98559.91;5191371;28;20229;-68
2023/05/27 04:26:59;;;;;;;12.93;5.70;;;12.70;99.90;;;13.63;69.14;98558.69;5193807;28;20223;-68
2023/05/27 04:29:34;;;;;;;10.50;5.97;;;12.70;99.90;;;13.63;69.06;98556.09;5198896;28;20225;-69
2023/05/27 04:32:07;;;;;;;11.93;5.70;;;12.80;99.90;;;13.68;69.08;98552.13;5193181;28;20728;-68
2023/05/27 04:34:41;;;;;;;15.40;5.80;;;12.80;99.90;;;13.82;68.46;98556.34;5205426;28;20599;-69
2023/05/27 04:37:16;;;;;;;10.00;5.30;;;12.90;99.90;;;13.88;67.54;98556.69;5193156;28;20686;-68
2023/05/27 04:39:49;;;;;;;13.10;5.72;;;13.00;99.90;;;13.97;67.22;98556.28;5203915;28;20217;-68
2023/05/27 04:42:23;;;;;;;9.13;5.47;;;13.00;99.90;;;13.96;67.56;98560.56;5194591;28;20235;-69
2023/05/27 04:44:57;;;;;;;12.25;6.38;;;13.10;99.90;;;14.16;66.20;98553.03;5196510;28;20221;-69
2023/05/27 04:47:30;;;;;;;11.13;5.75;;;13.20;99.90;;;14.30;65.73;98552.06;5197133;28;20657;-68
2023/05/27 04:50:05;;;;;;;10.55;5.80;;;13.30;99.90;;;14.47;65.53;98554.66;5195092;28;20261;-69
2023/05/27 04:52:41;;;;;;;12.85;5.63;;;13.50;99.90;;;14.57;64.42;98556.97;5200593;28;20225;-68
2023/05/27 04:55:14;;;;;;;11.48;5.57;;;13.60;99.90;;;14.83;63.98;98559.19;5200504;28;20768;-69
2023/05/27 04:57:48;;;;;;;10.80;5.80;;;13.70;99.90;;;14.89;64.58;98568.94;5198154;28;20230;-68
2023/05/27 05:00:36;;;;;;;12.73;6.07;;;13.80;99.90;;;14.97;63.67;98565.06;5200828;28;20587;-69
2023/05/27 05:03:10;;;;;;;9.45;5.40;;;13.90;99.90;;;15.25;62.37;98569.00;5199498;28;20232;-68
2023/05/27 05:05:44;;;;;;;12.95;5.78;;;14.00;99.90;;;15.61;60.73;98558.75;5195056;28;20237;-68
2023/05/27 05:08:17;;;;;;;12.43;6.13;;;14.40;99.90;;;15.68;60.80;98556.59;5201130;28;20338;-69
2023/05/27 05:10:52;;;;;;;8.30;5.15;;;14.50;99.90;;;15.96;59.25;98552.75;5198117;28;20271;-68
2023/05/27 05:13:28;;;;;;;12.02;5.60;;;14.80;99.90;;;16.04;59.36;98553.97;5191889;28;20656;-68
2023/05/27 05:16:03;;;;;;;11.18;5.85;;;14.90;99.90;;;16.23;58.49;98548.00;5199133;28;20225;-68
2023/05/27 05:18:36;;;;;;;11.80;5.28;;;15.00;99.90;;;16.52;56.84;98549.31;5192399;28;20271;-68
2023/05/27 05:21:10;;;;;;;11.80;5.07;;;15.10;99.90;;;16.77;56.09;98545.25;5197586;28;20229;-68
2023/05/27 05:23:43;;;;;;;11.05;5.50;;;15.50;99.50;;;17.14;54.16;98552.00;5198234;28;20690;-68
2023/05/27 05:26:16;;;;;;;10.05;5.60;;;15.80;98.40;;;17.22;54.16;98548.03;5193851;28;20229;-68
2023/05/27 05:28:49;;;;;;;12.07;5.18;;;15.70;98.70;;;17.59;54.02;98544.38;5200231;28;20621;-68
2023/05/27 05:31:24;;;;;;;9.32;4.55;;;16.00;98.40;;;17.90;52.98;98555.16;5195957;28;20643;-68
2023/05/27 05:33:57;;;;;;;10.43;5.05;;;16.30;98.00;;;18.09;51.29;98551.59;5198093;28;20268;-67
2023/05/27 05:36:30;;;;;;;11.13;5.43;;;16.50;97.00;;;18.34;51.10;98545.66;5198660;28;20234;-68
2023/05/27 05:39:04;;;;;;;9.40;4.68;;;16.60;96.90;;;18.46;50.38;98548.69;5193469;28;20230;-68
2023/05/27 05:41:37;;;;;;;12.85;5.25;;;16.80;96.10;;;18.52;50.68;98557.53;5195558;28;20600;-68
2023/05/27 05:44:10;;;;;;;7.57;4.75;;;16.90;96.40;;;18.65;50.93;98560.59;5186998;28;20222;-69
2023/05/27 05:46:45;;;;;;;9.50;4.65;;;16.90;96.80;;;18.98;49.54;98548.84;5188859;28;20728;-68
2023/05/27 05:49:19;;;;;;;10.10;5.07;;;17.10;95.90;;;19.13;49.08;98550.25;5195652;28;20229;-68
2023/05/27 05:51:52;;;;;;;10.65;5.55;;;17.30;95.60;;;19.29;48.51;98556.84;5195878;28;20221;-68
2023/05/27 05:54:26;;;;;;;8.75;4.97;;;17.50;95.20;;;19.55;48.23;98549.91;5195837;28;20234;-68
2023/05/27 05:57:01;;;;;;;10.30;4.93;;;17.70;95.10;;;19.71;47.85;98543.53;5198042;28;20253;-68
2023/05/27 05:59:34;;;;;;;11.75;5.28;;;17.90;94.80;;;19.92;46.52;98543.34;5198900;28;20221;-68
2023/05/27 06:02:09;;;;;;;10.32;4.97;;;18.00;93.90;;;20.17;45.02;98550.19;5195054;28;20233;-68
2023/05/27 06:04:42;;;;;;;10.13;4.85;;;18.40;92.80;;;19.91;45.70;98549.34;5198238;28;20303;-68
2023/05/27 06:07:15;;;;;;;9.32;5.00;;;18.50;92.70;;;20.37;44.95;98542.06;5193797;28;20724;-67
2023/05/27 06:09:49;;;;;;;7.55;4.82;;;18.60;92.60;;;20.54;44.97;98543.47;5195904;28;20217;-68
2023/05/27 06:12:22;;;;;;;10.20;4.88;;;18.50;93.00;;;20.62;45.24;98541.97;5198110;28;20611;-67
2023/05/27 06:14:57;;;;;;;12.15;5.68;;;18.70;93.10;;;20.79;43.35;98549.38;5202893;28;20222;-68
2023/05/27 06:17:32;;;;;;;8.25;4.40;;;18.90;91.40;;;21.03;43.64;98550.06;5201368;28;20221;-67
2023/05/27 06:20:07;;;;;;;9.23;4.68;;;19.00;91.90;;;21.54;41.94;98551.38;5195928;28;20637;-68
2023/05/27 06:22:40;;;;;;;9.80;5.05;;;19.40;91.20;;;21.64;42.01;98545.56;5198548;28;20594;-67
2023/05/27 06:25:13;;;;;;;9.85;4.78;;;19.40;91.20;;;21.55;41.93;98543.63;5201754;28;20245;-67
2023/05/27 06:27:47;;;;;;;8.13;4.32;;;19.40;91.00;;;21.46;42.01;98546.00;5201847;28;20222;-68
2023/05/27 06:30:20;;;;;;;8.63;4.97;;;19.30;91.00;;;21.84;41.02;98539.97;5198502;28;20221;-68
2023/05/27 06:32:54;;;;;;;8.75;4.80;;;19.60;90.70;;;22.20;41.24;98538.19;5196133;28;20222;-68
2023/05/27 06:35:28;;;;;;;7.45;4.75;;;19.90;90.90;;;22.98;38.83;98538.97;5199817;28;20244;-67
2023/05/27 06:38:01;;;;;;;6.88;4.53;;;20.50;88.60;;;23.01;38.90;98545.97;5205927;28;20237;-68
2023/05/27 06:40:34;;;;;;;7.55;4.75;;;20.80;88.20;;;22.81;37.95;98537.72;5209968;28;20839;-67
2023/05/27 06:43:08;;;;;;;10.23;5.10;;;20.90;85.50;;;22.81;38.96;98537.72;5199027;28;20280;-67
2023/05/27 06:45:41;;;;;;;9.23;4.68;;;20.70;87.80;;;23.03;38.55;98539.91;5205749;28;20226;-68
2023/05/27 06:48:35;;;;;;;9.82;4.50;;;20.90;87.00;;;22.91;38.89;98534.44;5200900;28;20225;-67
2023/05/27 06:51:09;;;;;;;9.63;5.20;;;21.10;86.30;;;23.36;38.33;98531.81;5206601;28;20220;-68
2023/05/27 06:53:42;;;;;;;8.55;4.80;;;21.40;86.20;;;22.69;38.31;98530.53;5200257;28;20236;-68
2023/05/27 06:56:16;;;;;;;9.48;5.18;;;21.30;84.40;;;22.45;39.28;98529.19;5203156;28;20611;-68
2023/05/27 06:58:49;;;;;;;9.57;4.70;;;20.80;86.40;;;22.80;38.63;98526.41;5207662;28;20225;-68
2023/05/27 07:01:23;;;;;;;12.57;5.07;;;20.80;86.20;;;22.99;38.42;98532.00;5212700;28;20226;-68
2023/05/27 07:03:57;;;;;;;9.73;5.03;;;21.30;85.40;;;23.14;38.43;98527.94;5208499;28;20253;-68
2023/05/27 07:06:31;;;;;;;7.68;4.60;;;21.50;85.10;;;22.77;39.12;98525.47;5208053;28;20236;-68
2023/05/27 07:09:04;;;;;;;8.52;4.95;;;21.20;85.90;;;22.71;38.89;98537.53;5201337;28;20629;-68
2023/05/27 07:11:37;;;;;;;7.75;4.60;;;21.40;84.30;;;22.75;39.07;98541.09;5200701;28;20288;-68
2023/05/27 07:14:11;;;;;;;10.30;4.80;;;21.30;84.80;;;23.42;38.24;98538.00;5206845;28;20267;-68
2023/05/27 07:16:44;;;;;;;10.48;5.05;;;21.70;84.80;;;23.47;37.70;98538.94;5209322;28;20309;-68
2023/05/27 07:19:19;;;;;;;7.35;4.68;;;22.00;83.10;;;23.46;37.38;98539.78;5205305;28;20233;-68
2023/05/27 07:21:52;;;;;;;8.95;5.13;;;22.10;82.60;;;23.52;37.20;98545.09;5199977;28;20233;-68
2023/05/27 07:24:25;;;;;;;10.40;5.03;;;22.10;82.20;;;24.11;36.44;98542.56;5197977;28;20230;-68
2023/05/27 07:26:58;;;;;;;10.32;5.10;;;22.40;82.20;;;23.57;37.09;98538.22;5207708;28;20231;-67
2023/05/27 07:29:32;;;;;;;9.73;5.10;;;22.30;81.20;;;23.98;36.48;98541.53;5200212;28;20252;-68
2023/05/27 07:32:05;;;;;;;7.65;4.80;;;22.50;81.90;;;23.66;36.95;98538.38;5207916;28;20594;-67
2023/05/27 07:34:40;;;;;;;9.05;4.97;;;22.30;81.60;;;23.63;37.40;98540.06;5200940;28;20304;-68
2023/05/27 07:37:13;;;;;;;11.45;5.65;;;22.00;82.90;;;23.59;37.27;98533.91;5214520;28;20225;-67
2023/05/27 07:39:46;;;;;;;8.07;5.13;;;22.30;82.00;;;22.51;39.69;98536.25;5196219;28;20221;-68
2023/05/27 07:42:19;;;;;;;8.13;4.97;;;21.50;84.10;;;23.64;38.32;98524.44;5196128;28;20275;-68
2023/05/27 07:44:54;;;;;;;9.75;5.10;;;22.10;84.50;;;24.05;37.18;98522.47;5192718;28;20757;-69
2023/05/27 07:47:27;;;;;;;7.95;4.88;;;22.50;82.60;;;24.35;36.42;98517.63;5198578;28;20224;-70
2023/05/27 07:50:03;;;;;;;7.60;4.43;;;22.40;82.60;;;25.11;36.02;98521.16;5199362;28;20756;-68
2023/05/27 07:52:36;;;;;;;11.40;5.53;;;22.80;83.00;;;24.50;36.73;98521.34;5205498;28;20308;-68
2023/05/27 07:55:10;;;;;;;9.65;5.22;;;22.70;82.40;;;24.89;35.65;98520.03;5205323;28;20222;-69
2023/05/27 07:57:43;;;;;;;8.90;5.28;;;22.80;81.90;;;24.24;36.36;98527.97;5200249;28;20221;-68
2023/05/27 08:00:17;;;;;;;7.57;4.88;;;22.80;80.70;;;23.85;37.36;98518.69;5200361;28;20234;-68
2023/05/27 08:02:50;;;;;;;6.72;5.22;;;22.30;82.30;;;24.87;36.73;98524.41;5200922;28;20325;-67
2023/05/27 08:05:25;;;;;;;9.20;5.25;;;22.80;83.40;;;25.06;35.81;98512.38;5195221;28;20252;-67
2023/05/27 08:07:58;;;;;;;11.25;5.30;;;23.10;81.20;;;25.02;34.31;98522.81;5193071;28;20225;-70
2023/05/27 08:10:31;;;;;;;9.82;5.38;;;23.20;79.70;;;24.01;36.89;98509.34;5193410;28;20240;-68
2023/05/27 08:13:05;;;;;;;10.90;5.35;;;22.80;81.20;;;23.81;37.21;98515.16;5188635;28;20237;-68
2023/05/27 08:15:38;;;;;;;8.77;5.15;;;22.70;81.20;;;24.26;37.17;98514.03;5194562;28;20217;-68
2023/05/27 08:18:11;;;;;;;7.43;4.80;;;23.00;81.70;;;24.62;38.21;98507.56;5197075;28;20248;-69
2023/05/27 08:20:47;;;;;;;8.38;5.18;;;23.30;83.50;;;24.61;36.77;98503.19;5196435;28;20221;-69
2023/05/27 08:23:21;;;;;;;7.65;4.82;;;23.40;81.10;;;24.73;35.96;98505.94;5203332;28;20229;-68
2023/05/27 08:25:55;;;;;;;8.00;5.15;;;23.60;79.60;;;25.21;35.89;98497.72;5195441;28;21196;-68
2023/05/27 08:28:28;;;;;;;12.30;5.70;;;24.00;80.00;;;24.58;36.09;98500.53;5199498;28;20723;-68
2023/05/27 08:31:01;;;;;;;8.32;5.13;;;23.80;78.90;;;24.53;37.35;98499.59;5195239;28;20229;-67
2023/05/27 08:33:34;;;;;;;9.77;5.57;;;23.50;80.90;;;24.72;36.35;98488.50;5201176;28;20217;-68
2023/05/27 08:36:11;;;;;;;8.02;4.82;;;23.70;79.90;;;24.87;36.76;98492.16;5195694;28;20529;-68
2023/05/27 08:38:44;;;;;;;8.55;5.13;;;23.90;79.50;;;23.89;37.53;98485.66;5192791;28;20231;-68
2023/05/27 08:41:18;;;;;;;8.65;5.55;;;23.00;80.00;;;24.07;37.78;98483.31;5195562;28;20608;-68
2023/05/27 08:43:52;;;;;;;7.90;5.18;;;22.80;82.30;;;24.03;38.59;98466.69;5198825;28;20221;-68
2023/05/27 08:46:37;;;;;;;7.75;5.50;;;22.90;82.70;;;24.49;37.69;98482.13;5194747;28;20230;-69
2023/05/27 08:49:10;;;;;;;7.82;5.45;;;23.60;80.70;;;24.31;36.84;98479.25;5196426;28;20225;-68
2023/05/27 08:51:46;;;;;;;10.35;5.18;;;23.70;78.90;;;23.89;38.01;98477.81;5199255;28;20230;-68
2023/05/27 08:54:21;;;;;;;7.82;5.22;;;23.20;80.80;;;24.23;37.18;98472.19;5199409;28;20734;-68
2023/05/27 08:56:56;;;;;;;8.50;5.35;;;23.20;80.60;;;24.30;37.43;98469.69;5197676;28;20220;-68
2023/05/27 08:59:30;;;;;;;7.97;5.53;;;23.50;80.40;;;24.31;37.61;98468.81;5198092;28;20605;-68
2023/05/27 09:02:05;;;;;;;8.60;5.00;;;23.50;80.60;;;24.19;38.20;98472.16;5195368;28;20221;-67
2023/05/27 09:04:40;;;;;;;9.27;5.80;;;23.50;81.30;;;24.19;37.83;98457.34;5197769;28;20225;-68
2023/05/27 09:07:15;;;;;;;9.95;5.13;;;23.60;80.10;;;24.17;38.32;98464.28;5200093;28;20726;-67
2023/05/27 09:09:57;;;;;;;9.32;6.30;;;23.50;81.00;;;24.39;37.57;98465.44;5194790;28;21351;-67
2023/05/27 09:12:31;;;;;;;7.03;5.00;;;23.80;80.10;;;24.38;37.36;98462.78;5196219;28;20236;-67
2023/05/27 09:15:05;;;;;;;10.15;5.57;;;23.70;79.70;;;24.53;38.40;98473.47;5191363;28;20977;-67
2023/05/27 09:17:42;;;;;;;8.98;5.82;;;23.80;81.90;;;24.25;37.44;98474.84;5197186;28;20228;-68
2023/05/27 09:20:16;;;;;;;10.23;5.60;;;23.50;79.50;;;23.94;38.25;98458.75;5194317;28;20226;-67
2023/05/27 09:22:50;;;;;;;8.52;5.55;;;23.20;80.20;;;24.54;37.66;98469.97;5193821;28;20712;-67
2023/05/27 09:25:25;;;;;;;8.15;5.38;;;23.80;80.00;;;24.58;37.61;98447.34;5195259;28;20220;-67
2023/05/27 09:27:58;;;;;;;9.38;5.63;;;23.90;80.20;;;23.96;38.38;98458.78;5197245;28;20216;-67
2023/05/27 09:30:31;;;;;;;9.70;5.70;;;23.40;80.80;;;23.92;37.75;98463.09;5196799;28;20736;-67
2023/05/27 09:33:06;;;;;;;9.23;6.10;;;23.40;79.20;;;24.26;37.68;98456.53;5192715;28;20249;-67
2023/05/27 09:35:40;;;;;;;7.75;5.43;;;23.50;80.20;;;24.23;38.94;98450.41;5192919;28;20248;-67
2023/05/27 09:38:15;;;;;;;9.05;5.85;;;23.60;81.40;;;24.23;38.88;98446.06;5195966;28;20232;-68
2023/05/27 09:40:48;;;;;;;8.20;5.78;;;23.60;81.20;;;24.49;38.59;98440.28;5199016;28;20236;-68
2023/05/27 09:43:22;;;;;;;11.52;5.97;;;23.80;81.50;;;23.97;38.26;98444.88;5195257;28;20705;-71
2023/05/27 09:46:01;;;;;;;12.10;5.93;;;23.60;80.00;;;23.70;40.08;98434.91;5198397;28;20648;-69
2023/05/27 09:48:34;;;;;;;8.13;6.00;;;23.20;82.50;;;23.63;39.18;98433.91;5197445;28;20224;-66
2023/05/27 09:51:08;;;;;;;7.53;5.50;;;23.20;81.20;;;23.38;39.84;98423.13;5203007;28;20230;-67
2023/05/27 09:53:45;;;;;;;8.23;6.20;;;22.90;82.30;;;24.08;38.28;98435.44;5195286;28;20226;-66
2023/05/27 09:56:18;;;;;;;9.38;5.47;;;23.50;80.20;;;24.40;38.49;98427.09;5201174;28;20221;-66
2023/05/27 09:58:52;;;;;;;9.27;5.85;;;23.80;80.20;;;24.21;38.14;98432.13;5199255;28;20228;-65
2023/05/27 10:01:28;;;;;;;9.55;5.95;;;23.80;79.50;;;24.21;38.00;98429.50;5198239;28;20233;-66
2023/05/27 10:04:03;;;;;;;10.75;6.03;;;23.70;79.40;;;24.12;38.89;98426.75;5202738;28;20225;-67
2023/05/27 10:06:36;;;;;;;7.40;5.70;;;23.60;80.60;;;24.30;38.31;98422.66;5199221;28;20244;-67
2023/05/27 10:09:12;;;;;;;11.35;6.47;;;23.80;79.90;;;24.23;37.69;98417.31;5199186;28;20222;-68
2023/05/27 10:11:46;;;;;;;7.40;5.78;;;24.00;78.10;;;23.76;36.71;98415.00;5197905;28;20611;-67
2023/05/27 10:14:20;;;;;;;8.52;6.20;;;23.60;76.50;;;23.69;36.46;98407.88;5195276;28;20301;-67
2023/05/27 10:16:57;;;;;;;7.53;5.38;;;23.50;76.40;;;23.76;37.09;98415.00;5199863;28;20221;-67
2023/05/27 10:19:30;;;;;;;8.63;5.80;;;23.30;77.50;;;23.57;37.52;98412.94;5196534;28;20355;-67
2023/05/27 10:22:11;;;;;;;10.38;6.13;;;23.30;77.80;;;23.36;37.85;98409.16;5198081;28;20226;-68
2023/05/27 10:24:49;;;;;;;8.48;5.32;;;23.00;78.10;;;23.97;37.96;98395.25;5205201;28;20222;-67
2023/05/27 10:27:23;;;;;;;9.43;6.28;;;23.40;79.00;;;23.65;38.04;98405.22;5193496;28;20568;-67
2023/05/27 10:29:59;;;;;;;8.10;5.57;;;23.30;78.60;;;23.90;37.24;98417.78;5197649;28;20237;-66
2023/05/27 10:32:50;;;;;;;9.32;5.90;;;23.40;78.30;;;23.44;38.09;98398.00;5199868;28;20229;-67
2023/05/27 10:35:27;;;;;;;8.85;5.95;;;23.10;78.90;;;23.92;37.63;98399.53;5196163;28;20222;-67
2023/05/27 10:38:01;;;;;;;8.95;5.10;;;23.40;78.50;;;24.19;36.68;98409.44;5199430;28;20233;-66
2023/05/27 10:40:36;;;;;;;7.45;5.30;;;23.70;76.50;;;23.85;37.74;98388.13;5196030;28;20241;-69
2023/05/27 10:43:16;;;;;;;7.78;5.05;;;23.40;78.00;;;23.70;38.19;98391.41;5200227;28;20593;-68
2023/05/27 10:45:50;;;;;;;7.57;6.20;;;23.30;78.60;;;23.91;38.42;98389.94;5197363;28;20225;-68